createdAt,value
2019-01-25T00:03:38.701Z,10.47
2019-01-25T00:07:46.695Z,8.10
2019-01-25T00:11:54.756Z,10.33
2019-01-25T00:16:03.015Z,11.17
2019-01-25T00:20:10.971Z,13.17
2019-01-25T00:24:18.673Z,14.20
2019-01-25T00:28:26.679Z,18.03
2019-01-25T00:32:34.316Z,22.27
2019-01-25T00:36:42.330Z,17.87
2019-01-25T00:40:50.035Z,20.23
2019-01-25T00:44:57.643Z,11.70
2019-01-25T00:49:05.987Z,12.97
2019-01-25T00:53:13.692Z,15.27
2019-01-25T00:57:21.408Z,14.83
2019-01-25T01:01:29.512Z,11.97
2019-01-25T01:05:37.019Z,12.23
2019-01-25T01:09:44.909Z,13.53
2019-01-25T01:13:52.896Z,13.43
2019-01-25T01:18:02.336Z,14.23
2019-01-25T01:22:10.352Z,12.83
2019-01-25T01:26:18.348Z,15.80
2019-01-25T01:30:26.220Z,15.10
2019-01-25T01:34:34.218Z,12.77
2019-01-25T01:38:42.210Z,14.73
2019-01-25T01:42:50.525Z,14.80
2019-01-25T01:46:59.547Z,13.70
2019-01-25T01:51:07.655Z,17.47
2019-01-25T01:55:15.492Z,19.90
2019-01-25T01:59:23.511Z,17.13
2019-01-25T02:03:31.213Z,13.20
2019-01-25T02:07:39.212Z,16.33
2019-01-25T02:11:47.316Z,15.40
2019-01-25T02:15:55.336Z,12.40
2019-01-25T02:20:03.442Z,10.70
2019-01-25T02:24:11.345Z,14.53
2019-01-25T02:28:19.258Z,13.67
2019-01-25T02:32:27.259Z,15.60
2019-01-25T02:36:35.047Z,16.20
2019-01-25T02:40:42.931Z,16.50
2019-01-25T02:44:50.638Z,15.07
2019-01-25T02:48:58.651Z,13.93
2019-01-25T02:53:06.451Z,20.03
2019-01-25T02:57:14.093Z,19.57
2019-01-25T03:01:21.869Z,14.63
2019-01-25T03:05:30.253Z,15.43
2019-01-25T03:09:38.722Z,15.47
2019-01-25T03:13:46.217Z,15.00
2019-01-25T03:17:54.529Z,14.37
2019-01-25T03:22:03.013Z,11.83
2019-01-25T03:26:11.011Z,15.67
2019-01-25T03:30:20.740Z,14.60
2019-01-25T03:34:29.283Z,14.53
2019-01-25T03:38:37.288Z,12.93
2019-01-25T03:42:45.425Z,11.93
2019-01-25T03:46:53.144Z,13.30
2019-01-25T03:51:00.929Z,11.53
2019-01-25T03:55:10.525Z,11.30
2019-01-25T03:59:18.435Z,12.27
2019-01-25T04:03:26.541Z,12.63
2019-01-25T04:07:34.542Z,9.73
2019-01-25T04:11:42.535Z,10.80
2019-01-25T04:15:50.034Z,11.70
2019-01-25T04:19:58.039Z,11.90
2019-01-25T04:24:07.238Z,10.90
2019-01-25T04:28:14.832Z,13.53
2019-01-25T04:32:22.821Z,14.70
2019-01-25T04:36:30.924Z,15.03
2019-01-25T04:40:38.833Z,18.23
2019-01-25T04:44:47.214Z,20.07
2019-01-25T04:48:55.039Z,50.00
2019-01-25T04:53:03.056Z,20.77
2019-01-25T04:57:11.073Z,19.57
2019-01-25T05:01:19.021Z,19.80
2019-01-25T05:05:27.453Z,21.53
2019-01-25T05:09:40.136Z,20.17
2019-01-25T05:13:48.121Z,17.80
2019-01-25T05:17:56.508Z,22.67
2019-01-25T05:22:04.618Z,18.80
2019-01-25T05:26:12.674Z,25.30
2019-01-25T05:30:20.302Z,18.43
2019-01-25T05:34:28.229Z,24.20
2019-01-25T05:38:36.702Z,31.40
2019-01-25T05:42:44.331Z,32.33
2019-01-25T05:46:52.310Z,30.77
2019-01-25T05:51:05.780Z,32.47
2019-01-25T05:55:17.811Z,36.03
2019-01-25T05:59:25.733Z,29.40
2019-01-25T06:03:33.663Z,36.13
2019-01-25T06:07:44.110Z,47.73
2019-01-25T06:11:52.369Z,33.37
2019-01-25T06:16:00.636Z,29.23
2019-01-25T06:20:10.745Z,41.77
2019-01-25T06:24:18.764Z,33.10
2019-01-25T06:28:26.560Z,38.73
2019-01-25T06:32:34.836Z,34.27
2019-01-25T06:36:42.676Z,37.90
2019-01-25T06:40:50.279Z,29.23
2019-01-25T06:44:58.188Z,25.13
2019-01-25T06:49:06.424Z,25.77
2019-01-25T06:53:14.334Z,26.90
2019-01-25T06:57:32.098Z,22.10
2019-01-25T07:01:52.247Z,21.13
2019-01-25T07:06:00.101Z,34.93
2019-01-25T07:10:12.420Z,26.40
2019-01-25T07:14:20.443Z,26.43
2019-01-25T07:18:28.461Z,23.30
2019-01-25T07:22:36.470Z,27.43
2019-01-25T07:26:44.615Z,28.27
2019-01-25T07:30:52.318Z,28.67
2019-01-25T07:34:59.939Z,27.80
2019-01-25T07:39:23.230Z,29.50
2019-01-25T07:43:31.398Z,19.57
2019-01-25T07:47:39.834Z,20.83
2019-01-25T07:51:49.415Z,19.20
2019-01-25T07:55:57.504Z,27.20
2019-01-25T08:00:05.679Z,42.93
2019-01-25T08:04:13.374Z,39.23
2019-01-25T08:08:21.413Z,27.00
2019-01-25T08:12:29.152Z,24.67
2019-01-25T08:16:36.853Z,28.40
2019-01-25T08:20:44.639Z,34.90
2019-01-25T08:24:52.726Z,32.33
2019-01-25T08:29:00.811Z,40.13
2019-01-25T08:33:08.943Z,36.27
2019-01-25T08:37:17.234Z,29.47
2019-01-25T08:41:25.324Z,34.20
2019-01-25T08:45:33.569Z,23.73
2019-01-25T08:49:41.170Z,67.03
2019-01-25T08:53:49.328Z,36.73
2019-01-25T08:57:57.035Z,28.73
2019-01-25T09:02:05.471Z,21.63
2019-01-25T09:06:13.378Z,19.20
2019-01-25T09:10:21.752Z,34.93
2019-01-25T09:14:29.796Z,30.73
2019-01-25T09:18:37.816Z,33.23
2019-01-25T09:22:45.604Z,26.00
2019-01-25T09:26:53.415Z,26.20
2019-01-25T09:31:01.055Z,23.83
2019-01-25T09:35:09.240Z,27.13
2019-01-25T09:39:17.025Z,27.10
2019-01-25T09:43:25.050Z,23.63
2019-01-25T09:47:33.115Z,24.10
2019-01-25T09:51:40.675Z,26.33
2019-01-25T09:55:48.344Z,25.83
2019-01-25T09:59:56.429Z,25.53
2019-01-25T10:04:04.556Z,25.77
2019-01-25T10:08:12.589Z,33.70
2019-01-25T10:12:20.543Z,36.30
2019-01-25T10:16:28.263Z,32.60
2019-01-25T10:20:35.906Z,34.00
2019-01-25T10:24:43.486Z,27.97
2019-01-25T10:28:51.504Z,31.33
2019-01-25T10:33:00.548Z,29.33
2019-01-25T10:37:08.698Z,26.30
2019-01-25T10:41:16.637Z,25.17
2019-01-25T10:45:30.150Z,22.50
2019-01-25T10:49:37.895Z,23.87
2019-01-25T10:53:46.335Z,24.93
2019-01-25T10:57:55.150Z,34.43
2019-01-25T11:02:03.059Z,27.83
2019-01-25T11:06:10.687Z,43.77
2019-01-25T11:10:18.715Z,30.67
2019-01-25T11:14:26.529Z,31.70
2019-01-25T11:18:34.672Z,43.97
2019-01-25T11:22:43.053Z,44.77
2019-01-25T11:26:51.618Z,35.50
2019-01-25T11:30:59.762Z,33.47
2019-01-25T11:35:07.754Z,28.63
2019-01-25T11:39:16.003Z,34.67
2019-01-25T11:43:24.275Z,34.63
2019-01-25T11:47:32.146Z,25.90
2019-01-25T11:51:39.925Z,27.87
2019-01-25T11:55:47.551Z,27.97
2019-01-25T11:59:55.268Z,27.97
2019-01-25T12:04:03.318Z,23.57
2019-01-25T12:08:11.913Z,25.73
2019-01-25T12:12:19.683Z,36.60
2019-01-25T12:16:27.453Z,27.43
2019-01-25T12:20:35.224Z,41.17
2019-01-25T12:24:43.249Z,38.77
2019-01-25T12:28:50.769Z,28.63
2019-01-25T12:32:58.593Z,29.90
2019-01-25T12:37:06.423Z,30.50
2019-01-25T12:41:14.250Z,28.33
2019-01-25T12:45:24.307Z,92.73
2019-01-25T12:49:33.025Z,25.90
2019-01-25T12:53:41.059Z,26.37
2019-01-25T12:57:49.063Z,28.57
2019-01-25T13:01:56.873Z,24.20
2019-01-25T13:06:05.187Z,32.40
2019-01-25T13:10:14.541Z,29.57
2019-01-25T13:14:23.016Z,32.07
2019-01-25T13:18:31.031Z,30.97
2019-01-25T13:22:38.764Z,33.60
2019-01-25T13:26:46.900Z,25.03
2019-01-25T13:30:54.908Z,27.83
2019-01-25T13:35:02.928Z,30.27
2019-01-25T13:39:11.544Z,48.70
2019-01-25T13:43:20.381Z,45.73
2019-01-25T13:47:30.040Z,40.77
2019-01-25T13:51:37.905Z,34.30
2019-01-25T13:55:45.924Z,36.20
2019-01-25T13:59:54.307Z,43.43
2019-01-25T14:04:02.275Z,41.77
2019-01-25T14:08:10.337Z,37.50
2019-01-25T14:12:18.036Z,40.77
2019-01-25T14:16:25.907Z,38.87
2019-01-25T14:20:33.966Z,38.47
2019-01-25T14:24:42.700Z,34.63
2019-01-25T14:28:50.828Z,42.77
2019-01-25T14:32:58.866Z,40.20
2019-01-25T14:37:06.984Z,32.40
2019-01-25T14:41:15.005Z,37.37
2019-01-25T14:45:22.815Z,32.10
2019-01-25T14:49:30.831Z,41.83
2019-01-25T14:53:38.541Z,35.40
2019-01-25T14:57:46.646Z,57.23
2019-01-25T15:01:54.366Z,41.93
2019-01-25T15:06:02.088Z,46.37
2019-01-25T15:10:13.837Z,53.43
2019-01-25T15:14:21.549Z,41.17
2019-01-25T15:18:29.961Z,35.00
2019-01-25T15:22:37.899Z,34.00
2019-01-25T15:26:45.912Z,31.80
2019-01-25T15:30:54.292Z,36.17
2019-01-25T15:35:02.308Z,30.50
2019-01-25T15:39:12.032Z,36.40
2019-01-25T15:43:20.045Z,35.63
2019-01-25T15:47:28.046Z,37.63
2019-01-25T15:51:35.766Z,83.53
2019-01-25T15:55:43.501Z,46.13
2019-01-25T15:59:51.386Z,57.40
2019-01-25T16:03:59.106Z,39.73
2019-01-25T16:08:07.341Z,43.53
2019-01-25T16:12:15.265Z,50.93
2019-01-25T16:16:23.640Z,40.27
2019-01-25T16:20:31.827Z,37.63
2019-01-25T16:24:39.581Z,40.47
2019-01-25T16:28:47.629Z,43.17
2019-01-25T16:32:55.352Z,39.33
2019-01-25T16:37:03.737Z,38.30
2019-01-25T16:41:11.792Z,47.03
2019-01-25T16:45:28.533Z,48.87
2019-01-25T16:49:36.918Z,45.93
2019-01-25T16:53:45.002Z,45.37
2019-01-25T16:57:53.033Z,36.47
2019-01-25T17:02:01.038Z,39.27
2019-01-25T17:06:08.950Z,40.97
2019-01-25T17:10:17.779Z,36.37
2019-01-25T17:14:33.164Z,38.57
2019-01-25T17:18:35.824Z,40.50
2019-01-25T17:22:43.597Z,36.97
2019-01-25T17:26:51.727Z,34.67
2019-01-25T17:30:59.706Z,43.37
2019-01-25T17:35:09.749Z,45.17
2019-01-25T17:39:18.586Z,51.03
2019-01-25T17:43:26.957Z,45.83
2019-01-25T17:47:35.066Z,47.83
2019-01-25T17:51:43.004Z,44.57
2019-01-25T17:55:52.425Z,48.37
2019-01-25T18:00:00.258Z,38.23
2019-01-25T18:04:08.158Z,43.20
2019-01-25T18:08:15.928Z,45.20
2019-01-25T18:12:23.675Z,42.50
2019-01-25T18:16:32.205Z,43.67
2019-01-25T18:20:40.351Z,45.83
2019-01-25T18:24:48.003Z,36.53
2019-01-25T18:29:06.518Z,45.87
2019-01-25T18:33:14.647Z,39.93
2019-01-25T18:37:22.583Z,38.03
2019-01-25T18:41:32.934Z,29.87
2019-01-25T18:45:41.485Z,21.23
2019-01-25T18:49:49.936Z,30.73
2019-01-25T18:53:58.021Z,33.23
2019-01-25T18:58:07.421Z,32.40
2019-01-25T19:02:18.432Z,43.87
2019-01-25T19:06:27.933Z,28.53
2019-01-25T19:10:36.218Z,29.40
2019-01-25T19:14:44.142Z,36.23
2019-01-25T19:18:51.997Z,52.10
2019-01-25T19:23:00.143Z,37.73
2019-01-25T19:27:08.573Z,40.13
2019-01-25T19:31:16.605Z,37.33
2019-01-25T19:35:24.217Z,25.03
2019-01-25T19:39:32.386Z,23.73
2019-01-25T19:43:40.419Z,16.70
2019-01-25T19:47:48.712Z,19.47
2019-01-25T19:51:56.759Z,63.40
2019-01-25T19:56:05.961Z,23.37
2019-01-25T20:00:20.548Z,19.20
2019-01-25T20:04:28.279Z,15.67
2019-01-25T20:08:36.232Z,19.43
2019-01-25T20:12:44.659Z,19.40
2019-01-25T20:16:52.760Z,17.90
2019-01-25T20:21:00.636Z,17.97
2019-01-25T20:25:09.454Z,16.70
2019-01-25T20:29:17.425Z,19.93
2019-01-25T20:33:25.827Z,23.00
2019-01-25T20:37:33.900Z,17.83
2019-01-25T20:41:41.674Z,16.37
2019-01-25T20:45:49.877Z,17.30
2019-01-25T20:49:57.589Z,17.70
2019-01-25T20:54:07.135Z,18.17
2019-01-25T20:58:15.158Z,19.60
2019-01-25T21:02:23.188Z,16.40
2019-01-25T21:06:31.218Z,17.90
2019-01-25T21:10:39.437Z,14.87
2019-01-25T21:14:47.449Z,14.83
2019-01-25T21:18:55.546Z,11.07
2019-01-25T21:23:03.944Z,15.57
2019-01-25T21:27:12.101Z,10.53
2019-01-25T21:31:20.504Z,14.27
2019-01-25T21:35:28.619Z,11.07
2019-01-25T21:39:37.434Z,8.77
2019-01-25T21:43:45.810Z,10.77
2019-01-25T21:47:53.990Z,10.87
2019-01-25T21:52:02.171Z,11.33
2019-01-25T21:56:10.299Z,11.00
2019-01-25T22:00:29.878Z,12.13
2019-01-25T22:04:37.784Z,13.87
2019-01-25T22:08:45.798Z,15.47
2019-01-25T22:12:53.813Z,17.07
2019-01-25T22:17:01.873Z,12.07
2019-01-25T22:21:09.921Z,14.97
2019-01-25T22:25:18.097Z,15.10
2019-01-25T22:29:26.103Z,16.90
2019-01-25T22:33:34.529Z,16.03
2019-01-25T22:37:42.538Z,13.93
2019-01-25T22:41:50.670Z,14.70
2019-01-25T22:45:58.891Z,16.93
2019-01-25T22:50:08.983Z,19.87
2019-01-25T22:54:16.701Z,17.90
2019-01-25T22:58:24.736Z,24.50
2019-01-25T23:02:32.746Z,17.30
2019-01-25T23:06:46.987Z,19.90
2019-01-25T23:10:55.378Z,20.77
2019-01-25T23:15:03.010Z,21.50
2019-01-25T23:19:12.054Z,18.83
2019-01-25T23:23:19.975Z,22.50
2019-01-25T23:27:27.997Z,21.93
2019-01-25T23:31:35.719Z,21.83
2019-01-25T23:35:43.834Z,20.50
2019-01-25T23:39:51.750Z,22.10
2019-01-25T23:43:59.748Z,18.70
2019-01-25T23:48:07.509Z,22.17
2019-01-25T23:52:15.587Z,20.63
2019-01-25T23:56:23.284Z,20.10
